sensor_id;sensor_type;location;lat;lon;timestamp;pressure;altitude;pressure_sealevel;temperature;humidity
11985;BME280;6052;53.246;10.368;2023-07-13T00:01:47;100747.28;;;23.86;75.69
11985;BME280;6052;53.246;10.368;2023-07-13T00:04:20;100743.59;;;23.74;76.38
11985;BME280;6052;53.246;10.368;2023-07-13T00:06:52;100739.88;;;23.78;75.49
11985;BME280;6052;53.246;10.368;2023-07-13T00:09:22;100744.56;;;23.78;75.70
11985;BME280;6052;53.246;10.368;2023-07-13T00:11:55;100739.88;;;23.70;76.46
11985;BME280;6052;53.246;10.368;2023-07-13T00:14:27;100740.34;;;23.63;76.52
11985;BME280;6052;53.246;10.368;2023-07-13T00:16:59;100746.50;;;23.60;76.26
11985;BME280;6052;53.246;10.368;2023-07-13T00:19:30;100742.47;;;23.58;76.23
11985;BME280;6052;53.246;10.368;2023-07-13T00:21:59;100742.78;;;23.48;77.00
11985;BME280;6052;53.246;10.368;2023-07-13T00:24:29;100747.13;;;23.40;77.33
11985;BME280;6052;53.246;10.368;2023-07-13T00:26:58;100752.91;;;23.47;76.42
11985;BME280;6052;53.246;10.368;2023-07-13T00:29:29;100748.56;;;23.46;76.10
11985;BME280;6052;53.246;10.368;2023-07-13T00:32:04;100749.38;;;23.55;76.10
11985;BME280;6052;53.246;10.368;2023-07-13T00:34:33;100757.09;;;23.45;75.94
11985;BME280;6052;53.246;10.368;2023-07-13T00:37:04;100753.06;;;23.42;76.42
11985;BME280;6052;53.246;10.368;2023-07-13T00:39:35;100748.25;;;23.39;76.08
11985;BME280;6052;53.246;10.368;2023-07-13T00:42:06;100755.34;;;23.40;75.54
11985;BME280;6052;53.246;10.368;2023-07-13T00:44:35;100754.84;;;23.38;75.26
11985;BME280;6052;53.246;10.368;2023-07-13T00:47:09;100751.78;;;23.31;75.30
11985;BME280;6052;53.246;10.368;2023-07-13T00:49:38;100745.94;;;23.24;76.08
11985;BME280;6052;53.246;10.368;2023-07-13T00:52:09;100750.47;;;23.20;75.86
11985;BME280;6052;53.246;10.368;2023-07-13T00:54:43;100748.88;;;23.28;75.26
11985;BME280;6052;53.246;10.368;2023-07-13T00:57:16;100746.91;;;23.20;75.60
11985;BME280;6052;53.246;10.368;2023-07-13T00:59:49;100755.97;;;23.29;75.03
11985;BME280;6052;53.246;10.368;2023-07-13T01:02:24;100747.22;;;23.18;75.17
11985;BME280;6052;53.246;10.368;2023-07-13T01:04:54;100751.88;;;23.18;75.32
11985;BME280;6052;53.246;10.368;2023-07-13T01:07:23;100750.75;;;23.10;75.50
11985;BME280;6052;53.246;10.368;2023-07-13T01:09:53;100760.72;;;23.15;74.99
11985;BME280;6052;53.246;10.368;2023-07-13T01:12:23;100754.28;;;23.11;75.27
11985;BME280;6052;53.246;10.368;2023-07-13T01:14:57;100748.00;;;23.10;74.88
11985;BME280;6052;53.246;10.368;2023-07-13T01:17:30;100749.59;;;23.11;74.40
11985;BME280;6052;53.246;10.368;2023-07-13T01:20:00;100754.28;;;23.11;74.17
11985;BME280;6052;53.246;10.368;2023-07-13T01:22:34;100746.19;;;23.06;74.64
11985;BME280;6052;53.246;10.368;2023-07-13T01:25:04;100758.91;;;23.02;74.97
11985;BME280;6052;53.246;10.368;2023-07-13T01:27:35;100755.53;;;22.96;74.96
11985;BME280;6052;53.246;10.368;2023-07-13T01:30:09;100761.66;;;23.02;74.92
11985;BME280;6052;53.246;10.368;2023-07-13T01:32:38;100762.06;;;22.78;75.72
11985;BME280;6052;53.246;10.368;2023-07-13T01:35:08;100760.84;;;22.93;75.01
11985;BME280;6052;53.246;10.368;2023-07-13T01:37:41;100759.69;;;22.85;74.76
11985;BME280;6052;53.246;10.368;2023-07-13T01:40:12;100759.53;;;22.90;74.29
11985;BME280;6052;53.246;10.368;2023-07-13T01:42:42;100769.97;;;22.88;73.98
11985;BME280;6052;53.246;10.368;2023-07-13T01:45:11;100756.88;;;22.77;74.13
11985;BME280;6052;53.246;10.368;2023-07-13T01:47:41;100762.94;;;22.65;75.33
11985;BME280;6052;53.246;10.368;2023-07-13T01:50:11;100759.16;;;22.75;74.60
11985;BME280;6052;53.246;10.368;2023-07-13T01:52:43;100767.66;;;22.73;74.58
11985;BME280;6052;53.246;10.368;2023-07-13T01:55:12;100764.63;;;22.75;74.23
11985;BME280;6052;53.246;10.368;2023-07-13T01:57:42;100766.34;;;22.62;74.56
11985;BME280;6052;53.246;10.368;2023-07-13T02:00:13;100762.81;;;22.70;74.57
11985;BME280;6052;53.246;10.368;2023-07-13T02:02:43;100770.38;;;22.65;73.90
11985;BME280;6052;53.246;10.368;2023-07-13T02:05:13;100765.78;;;22.52;74.91
11985;BME280;6052;53.246;10.368;2023-07-13T02:07:46;100764.88;;;22.56;74.28
11985;BME280;6052;53.246;10.368;2023-07-13T02:10:16;100760.50;;;22.55;74.31
11985;BME280;6052;53.246;10.368;2023-07-13T02:12:48;100761.63;;;22.54;73.50
11985;BME280;6052;53.246;10.368;2023-07-13T02:15:18;100767.75;;;22.51;73.85
11985;BME280;6052;53.246;10.368;2023-07-13T02:17:48;100769.34;;;22.52;74.08
11985;BME280;6052;53.246;10.368;2023-07-13T02:20:18;100773.94;;;22.43;73.51
11985;BME280;6052;53.246;10.368;2023-07-13T02:22:50;100775.44;;;22.49;74.05
11985;BME280;6052;53.246;10.368;2023-07-13T02:25:20;100772.94;;;22.39;73.97
11985;BME280;6052;53.246;10.368;2023-07-13T02:27:49;100773.25;;;22.37;73.87
11985;BME280;6052;53.246;10.368;2023-07-13T02:30:19;100765.22;;;22.41;73.85
11985;BME280;6052;53.246;10.368;2023-07-13T02:32:51;100768.28;;;22.39;73.67
11985;BME280;6052;53.246;10.368;2023-07-13T02:35:21;100776.38;;;22.45;73.46
11985;BME280;6052;53.246;10.368;2023-07-13T02:37:53;100773.53;;;22.36;73.70
11985;BME280;6052;53.246;10.368;2023-07-13T02:40:23;100768.06;;;22.36;73.23
11985;BME280;6052;53.246;10.368;2023-07-13T02:42:52;100771.75;;;22.31;73.19
11985;BME280;6052;53.246;10.368;2023-07-13T02:45:22;100773.44;;;22.19;73.93
11985;BME280;6052;53.246;10.368;2023-07-13T02:47:51;100776.06;;;22.24;73.76
11985;BME280;6052;53.246;10.368;2023-07-13T02:50:21;100768.53;;;22.29;73.12
11985;BME280;6052;53.246;10.368;2023-07-13T02:52:53;100774.16;;;22.24;73.52
11985;BME280;6052;53.246;10.368;2023-07-13T02:55:23;100772.84;;;22.22;73.41
11985;BME280;6052;53.246;10.368;2023-07-13T02:57:52;100772.84;;;22.22;73.41
11985;BME280;6052;53.246;10.368;2023-07-13T03:00:22;100770.22;;;22.17;73.44
11985;BME280;6052;53.246;10.368;2023-07-13T03:02:51;100769.72;;;22.15;73.72
11985;BME280;6052;53.246;10.368;2023-07-13T03:05:24;100776.00;;;22.15;72.98
11985;BME280;6052;53.246;10.368;2023-07-13T03:07:56;100777.91;;;22.15;72.60
11985;BME280;6052;53.246;10.368;2023-07-13T03:10:26;100785.47;;;22.09;72.72
11985;BME280;6052;53.246;10.368;2023-07-13T03:15:24;100775.88;;;21.98;72.65
11985;BME280;6052;53.246;10.368;2023-07-13T03:17:54;100778.78;;;22.02;72.90
11985;BME280;6052;53.246;10.368;2023-07-13T03:20:23;100778.59;;;21.98;72.66
11985;BME280;6052;53.246;10.368;2023-07-13T03:22:55;100775.06;;;21.98;72.70
11985;BME280;6052;53.246;10.368;2023-07-13T03:25:25;100774.25;;;21.97;73.08
11985;BME280;6052;53.246;10.368;2023-07-13T03:27:55;100767.59;;;21.90;72.59
11985;BME280;6052;53.246;10.368;2023-07-13T03:30:24;100772.78;;;21.91;72.88
11985;BME280;6052;53.246;10.368;2023-07-13T03:32:54;100772.78;;;21.91;72.31
11985;BME280;6052;53.246;10.368;2023-07-13T03:35:23;100776.63;;;21.90;72.40
11985;BME280;6052;53.246;10.368;2023-07-13T03:37:55;100782.69;;;21.87;73.05
11985;BME280;6052;53.246;10.368;2023-07-13T03:40:25;100781.09;;;21.86;72.52
11985;BME280;6052;53.246;10.368;2023-07-13T03:42:55;100776.75;;;21.85;72.57
11985;BME280;6052;53.246;10.368;2023-07-13T03:45:24;100782.09;;;21.90;72.96
11985;BME280;6052;53.246;10.368;2023-07-13T03:47:54;100781.88;;;21.87;72.92
11985;BME280;6052;53.246;10.368;2023-07-13T03:50:24;100778.66;;;21.85;72.86
11985;BME280;6052;53.246;10.368;2023-07-13T03:52:56;100782.00;;;21.82;72.71
11985;BME280;6052;53.246;10.368;2023-07-13T03:55:26;100791.84;;;21.69;74.17
11985;BME280;6052;53.246;10.368;2023-07-13T03:58:00;100783.75;;;21.78;73.24
11985;BME280;6052;53.246;10.368;2023-07-13T04:00:30;100777.97;;;21.66;73.33
11985;BME280;6052;53.246;10.368;2023-07-13T04:02:59;100782.22;;;21.72;72.99
11985;BME280;6052;53.246;10.368;2023-07-13T04:05:29;100777.97;;;21.66;73.31
11985;BME280;6052;53.246;10.368;2023-07-13T04:08:01;100782.56;;;21.70;73.63
11985;BME280;6052;53.246;10.368;2023-07-13T04:10:31;100783.75;;;21.64;73.87
11985;BME280;6052;53.246;10.368;2023-07-13T04:13:00;100786.00;;;21.62;73.73
11985;BME280;6052;53.246;10.368;2023-07-13T04:15:31;100781.75;;;21.70;73.92
11985;BME280;6052;53.246;10.368;2023-07-13T04:18:01;100786.75;;;21.41;75.23
11985;BME280;6052;53.246;10.368;2023-07-13T04:20:30;100786.63;;;21.46;75.44
11985;BME280;6052;53.246;10.368;2023-07-13T04:23:02;100796.63;;;21.50;75.04
11985;BME280;6052;53.246;10.368;2023-07-13T04:25:32;100792.91;;;21.33;76.85
11985;BME280;6052;53.246;10.368;2023-07-13T04:28:03;100788.88;;;21.44;75.87
11985;BME280;6052;53.246;10.368;2023-07-13T04:30:33;100794.63;;;21.42;76.54
11985;BME280;6052;53.246;10.368;2023-07-13T04:33:03;100801.81;;;21.11;78.85
11985;BME280;6052;53.246;10.368;2023-07-13T04:35:32;100790.59;;;21.26;77.65
11985;BME280;6052;53.246;10.368;2023-07-13T04:38:05;100791.00;;;21.06;79.22
11985;BME280;6052;53.246;10.368;2023-07-13T04:40:35;100791.34;;;21.05;79.60
11985;BME280;6052;53.246;10.368;2023-07-13T04:43:05;100781.81;;;21.16;78.85
11985;BME280;6052;53.246;10.368;2023-07-13T04:45:35;100781.00;;;21.02;79.32
11985;BME280;6052;53.246;10.368;2023-07-13T04:48:05;100781.91;;;21.11;79.11
11985;BME280;6052;53.246;10.368;2023-07-13T04:50:36;100781.00;;;21.02;79.49
11985;BME280;6052;53.246;10.368;2023-07-13T04:53:08;100775.03;;;21.27;77.87
11985;BME280;6052;53.246;10.368;2023-07-13T04:55:41;100776.16;;;21.12;78.17
11985;BME280;6052;53.246;10.368;2023-07-13T04:58:10;100779.09;;;21.16;78.65
11985;BME280;6052;53.246;10.368;2023-07-13T05:00:40;100781.59;;;20.99;78.61
11985;BME280;6052;53.246;10.368;2023-07-13T05:03:09;100782.41;;;20.86;79.65
11985;BME280;6052;53.246;10.368;2023-07-13T05:05:37;100783.19;;;20.73;80.83
11985;BME280;6052;53.246;10.368;2023-07-13T05:08:09;100781.03;;;20.70;80.91
11985;BME280;6052;53.246;10.368;2023-07-13T05:10:38;100775.56;;;21.02;79.57
11985;BME280;6052;53.246;10.368;2023-07-13T05:13:08;100776.56;;;21.06;79.17
11985;BME280;6052;53.246;10.368;2023-07-13T05:15:38;100778.78;;;21.04;79.09
11985;BME280;6052;53.246;10.368;2023-07-13T05:18:07;100781.09;;;20.97;79.38
11985;BME280;6052;53.246;10.368;2023-07-13T05:20:37;100798.41;;;20.92;79.16
11985;BME280;6052;53.246;10.368;2023-07-13T05:23:10;100799.00;;;20.89;79.38
11985;BME280;6052;53.246;10.368;2023-07-13T05:25:39;100788.88;;;21.17;78.95
11985;BME280;6052;53.246;10.368;2023-07-13T05:28:09;100797.59;;;21.05;79.98
11985;BME280;6052;53.246;10.368;2023-07-13T05:30:38;100794.03;;;21.32;78.56
11985;BME280;6052;53.246;10.368;2023-07-13T05:33:08;100804.69;;;21.20;78.86
11985;BME280;6052;53.246;10.368;2023-07-13T05:35:37;100803.78;;;20.97;78.59
11985;BME280;6052;53.246;10.368;2023-07-13T05:38:09;100802.84;;;21.02;78.70
11985;BME280;6052;53.246;10.368;2023-07-13T05:40:39;100814.25;;;21.04;79.03
11985;BME280;6052;53.246;10.368;2023-07-13T05:43:09;100805.06;;;21.13;78.87
11985;BME280;6052;53.246;10.368;2023-07-13T05:45:38;100799.63;;;21.13;78.80
11985;BME280;6052;53.246;10.368;2023-07-13T05:48:08;100809.31;;;21.19;78.56
11985;BME280;6052;53.246;10.368;2023-07-13T05:50:37;100804.66;;;20.93;80.14
11985;BME280;6052;53.246;10.368;2023-07-13T05:53:11;100807.72;;;21.18;79.13
11985;BME280;6052;53.246;10.368;2023-07-13T05:55:41;100816.00;;;21.00;80.12
11985;BME280;6052;53.246;10.368;2023-07-13T05:58:14;100820.44;;;20.96;79.60
11985;BME280;6052;53.246;10.368;2023-07-13T06:00:43;100823.88;;;21.01;81.02
11985;BME280;6052;53.246;10.368;2023-07-13T06:03:13;100818.50;;;20.96;81.37
11985;BME280;6052;53.246;10.368;2023-07-13T06:05:43;100820.75;;;21.08;80.73
11985;BME280;6052;53.246;10.368;2023-07-13T06:08:15;100814.38;;;21.26;79.97
11985;BME280;6052;53.246;10.368;2023-07-13T06:10:45;100821.47;;;21.13;80.84
11985;BME280;6052;53.246;10.368;2023-07-13T06:13:14;100816.78;;;21.14;81.49
11985;BME280;6052;53.246;10.368;2023-07-13T06:15:48;100820.97;;;21.25;81.26
11985;BME280;6052;53.246;10.368;2023-07-13T06:18:17;100831.97;;;21.06;81.79
11985;BME280;6052;53.246;10.368;2023-07-13T06:20:47;100828.94;;;20.94;82.31
11985;BME280;6052;53.246;10.368;2023-07-13T06:23:18;100827.41;;;21.02;82.15
11985;BME280;6052;53.246;10.368;2023-07-13T06:25:48;100836.53;;;21.11;81.43
11985;BME280;6052;53.246;10.368;2023-07-13T06:28:18;100842.91;;;21.20;81.85
11985;BME280;6052;53.246;10.368;2023-07-13T06:30:48;100839.06;;;21.21;81.99
11985;BME280;6052;53.246;10.368;2023-07-13T06:33:17;100840.06;;;21.25;81.43
11985;BME280;6052;53.246;10.368;2023-07-13T06:35:47;100843.50;;;21.03;82.14
11985;BME280;6052;53.246;10.368;2023-07-13T06:38:19;100846.94;;;21.36;80.88
11985;BME280;6052;53.246;10.368;2023-07-13T06:40:48;100843.38;;;21.35;81.07
11985;BME280;6052;53.246;10.368;2023-07-13T06:43:17;100853.94;;;21.15;81.98
11985;BME280;6052;53.246;10.368;2023-07-13T06:45:48;100848.97;;;21.44;81.30
11985;BME280;6052;53.246;10.368;2023-07-13T06:48:18;100853.00;;;21.33;81.44
11985;BME280;6052;53.246;10.368;2023-07-13T06:50:49;100849.47;;;21.19;82.17
11985;BME280;6052;53.246;10.368;2023-07-13T06:53:22;100847.03;;;21.31;82.04
11985;BME280;6052;53.246;10.368;2023-07-13T06:55:52;100846.53;;;21.42;81.55
11985;BME280;6052;53.246;10.368;2023-07-13T06:58:22;100847.34;;;21.43;81.70
11985;BME280;6052;53.246;10.368;2023-07-13T07:00:52;100854.41;;;21.30;82.27
11985;BME280;6052;53.246;10.368;2023-07-13T07:03:21;100861.59;;;21.26;82.02
11985;BME280;6052;53.246;10.368;2023-07-13T07:05:51;100853.81;;;21.33;81.83
11985;BME280;6052;53.246;10.368;2023-07-13T07:08:23;100867.88;;;21.54;81.32
11985;BME280;6052;53.246;10.368;2023-07-13T07:10:52;100862.41;;;21.27;81.10
11985;BME280;6052;53.246;10.368;2023-07-13T07:13:21;100854.75;;;21.42;80.59
11985;BME280;6052;53.246;10.368;2023-07-13T07:15:51;100858.47;;;21.46;80.59
11985;BME280;6052;53.246;10.368;2023-07-13T07:18:21;100857.56;;;21.51;79.92
11985;BME280;6052;53.246;10.368;2023-07-13T07:20:50;100855.22;;;21.58;80.07
11985;BME280;6052;53.246;10.368;2023-07-13T07:23:19;100856.97;;;21.54;79.10
11985;BME280;6052;53.246;10.368;2023-07-13T07:25:52;100863.41;;;21.58;79.49
11985;BME280;6052;53.246;10.368;2023-07-13T07:28:21;100862.63;;;21.57;79.79
11985;BME280;6052;53.246;10.368;2023-07-13T07:30:54;100868.56;;;21.59;79.45
11985;BME280;6052;53.246;10.368;2023-07-13T07:33:27;100862.91;;;21.69;79.58
11985;BME280;6052;53.246;10.368;2023-07-13T07:35:57;100859.16;;;21.52;79.22
11985;BME280;6052;53.246;10.368;2023-07-13T07:38:29;100869.69;;;21.58;78.86
11985;BME280;6052;53.246;10.368;2023-07-13T07:41:03;100858.75;;;21.85;78.26
11985;BME280;6052;53.246;10.368;2023-07-13T07:43:36;100861.59;;;21.80;78.86
11985;BME280;6052;53.246;10.368;2023-07-13T07:46:05;100865.75;;;21.78;78.93
11985;BME280;6052;53.246;10.368;2023-07-13T07:48:35;100865.53;;;21.88;77.88
11985;BME280;6052;53.246;10.368;2023-07-13T07:51:05;100869.66;;;21.99;77.76
11985;BME280;6052;53.246;10.368;2023-07-13T07:53:34;100867.47;;;21.74;77.84
11985;BME280;6052;53.246;10.368;2023-07-13T07:56:06;100869.19;;;21.83;78.34
11985;BME280;6052;53.246;10.368;2023-07-13T07:58:39;100869.06;;;21.88;78.85
11985;BME280;6052;53.246;10.368;2023-07-13T08:01:11;100868.94;;;22.07;78.74
11985;BME280;6052;53.246;10.368;2023-07-13T08:03:45;100884.34;;;22.03;78.67
11985;BME280;6052;53.246;10.368;2023-07-13T08:06:17;100874.06;;;22.08;77.72
11985;BME280;6052;53.246;10.368;2023-07-13T08:08:53;100861.81;;;22.06;77.89
11985;BME280;6052;53.246;10.368;2023-07-13T08:11:27;100867.28;;;22.19;77.80
11985;BME280;6052;53.246;10.368;2023-07-13T08:14:00;100865.91;;;22.30;77.60
11985;BME280;6052;53.246;10.368;2023-07-13T08:16:30;100871.22;;;22.13;76.72
11985;BME280;6052;53.246;10.368;2023-07-13T08:18:59;100876.25;;;22.20;75.91
11985;BME280;6052;53.246;10.368;2023-07-13T08:21:29;100874.78;;;22.36;75.57
11985;BME280;6052;53.246;10.368;2023-07-13T08:23:58;100868.38;;;22.40;75.70
11985;BME280;6052;53.246;10.368;2023-07-13T08:26:30;100858.66;;;22.48;76.24
11985;BME280;6052;53.246;10.368;2023-07-13T08:28:59;100871.31;;;22.44;75.26
11985;BME280;6052;53.246;10.368;2023-07-13T08:31:29;100865.75;;;22.49;74.46
11985;BME280;6052;53.246;10.368;2023-07-13T08:33:59;100865.53;;;22.67;74.05
11985;BME280;6052;53.246;10.368;2023-07-13T08:36:29;100868.72;;;22.61;73.87
11985;BME280;6052;53.246;10.368;2023-07-13T08:38:58;100867.22;;;22.77;73.71
11985;BME280;6052;53.246;10.368;2023-07-13T08:41:30;100864.91;;;22.71;73.45
11985;BME280;6052;53.246;10.368;2023-07-13T08:44:02;100858.28;;;22.63;73.98
11985;BME280;6052;53.246;10.368;2023-07-13T08:46:36;100865.34;;;22.64;73.40
11985;BME280;6052;53.246;10.368;2023-07-13T08:49:12;100857.66;;;22.66;72.95
11985;BME280;6052;53.246;10.368;2023-07-13T08:51:48;100862.19;;;22.71;72.38
11985;BME280;6052;53.246;10.368;2023-07-13T08:54:22;100861.44;;;22.57;71.18
11985;BME280;6052;53.246;10.368;2023-07-13T08:56:59;100865.59;;;22.76;71.97
11985;BME280;6052;53.246;10.368;2023-07-13T08:59:33;100859.22;;;22.89;72.45
11985;BME280;6052;53.246;10.368;2023-07-13T09:04:56;100873.94;;;23.02;71.53
11985;BME280;6052;53.246;10.368;2023-07-13T09:07:40;100859.22;;;22.89;69.97
11985;BME280;6052;53.246;10.368;2023-07-13T09:10:15;100865.66;;;23.15;70.62
11985;BME280;6052;53.246;10.368;2023-07-13T09:13:00;100856.34;;;23.25;69.27
11985;BME280;6052;53.246;10.368;2023-07-13T09:15:37;100863.19;;;23.05;68.70
11985;BME280;6052;53.246;10.368;2023-07-13T09:18:12;100853.13;;;23.23;69.50
11985;BME280;6052;53.246;10.368;2023-07-13T09:20:47;100854.00;;;23.10;69.34
11985;BME280;6052;53.246;10.368;2023-07-13T09:23:20;100865.25;;;23.30;69.89
11985;BME280;6052;53.246;10.368;2023-07-13T09:25:54;100863.66;;;23.29;68.43
11985;BME280;6052;53.246;10.368;2023-07-13T09:28:29;100864.81;;;23.45;68.35
11985;BME280;6052;53.246;10.368;2023-07-13T09:31:05;100865.41;;;23.34;68.82
11985;BME280;6052;53.246;10.368;2023-07-13T09:33:37;100857.88;;;23.39;69.04
11985;BME280;6052;53.246;10.368;2023-07-13T09:36:18;100856.75;;;23.49;68.47
11985;BME280;6052;53.246;10.368;2023-07-13T09:38:58;100859.59;;;23.27;68.38
11985;BME280;6052;53.246;10.368;2023-07-13T09:41:36;100855.59;;;23.33;67.11
11985;BME280;6052;53.246;10.368;2023-07-13T09:44:13;100850.44;;;23.40;67.09
11985;BME280;6052;53.246;10.368;2023-07-13T09:46:46;100858.47;;;23.28;66.55
11985;BME280;6052;53.246;10.368;2023-07-13T09:49:16;100863.94;;;23.28;68.35
11985;BME280;6052;53.246;10.368;2023-07-13T09:51:45;100871.19;;;23.24;69.66
11985;BME280;6052;53.246;10.368;2023-07-13T09:54:18;100873.25;;;23.18;70.96
11985;BME280;6052;53.246;10.368;2023-07-13T09:56:48;100889.03;;;22.91;72.54
11985;BME280;6052;53.246;10.368;2023-07-13T09:59:29;100884.53;;;22.95;73.44
11985;BME280;6052;53.246;10.368;2023-07-13T10:01:59;100887.47;;;22.98;74.01
11985;BME280;6052;53.246;10.368;2023-07-13T10:04:32;100891.09;;;23.16;74.51
11985;BME280;6052;53.246;10.368;2023-07-13T10:07:08;100889.22;;;23.25;73.95
11985;BME280;6052;53.246;10.368;2023-07-13T10:09:56;100882.75;;;23.21;74.75
11985;BME280;6052;53.246;10.368;2023-07-13T10:12:35;100883.38;;;23.18;74.34
11985;BME280;6052;53.246;10.368;2023-07-13T10:15:14;100869.97;;;23.08;74.26
11985;BME280;6052;53.246;10.368;2023-07-13T10:17:51;100872.13;;;23.19;73.24
11985;BME280;6052;53.246;10.368;2023-07-13T10:20:22;100875.25;;;23.04;73.42
11985;BME280;6052;53.246;10.368;2023-07-13T10:22:55;100868.00;;;23.30;70.90
11985;BME280;6052;53.246;10.368;2023-07-13T10:25:31;100869.44;;;23.28;69.88
11985;BME280;6052;53.246;10.368;2023-07-13T10:28:04;100870.59;;;23.44;69.94
11985;BME280;6052;53.246;10.368;2023-07-13T10:30:40;100869.69;;;23.57;69.06
11985;BME280;6052;53.246;10.368;2023-07-13T10:33:13;100856.31;;;23.72;69.64
11985;BME280;6052;53.246;10.368;2023-07-13T10:35:44;100864.22;;;23.74;69.50
11985;BME280;6052;53.246;10.368;2023-07-13T10:38:16;100864.63;;;23.89;69.12
11985;BME280;6052;53.246;10.368;2023-07-13T10:40:53;100866.38;;;23.94;68.29
11985;BME280;6052;53.246;10.368;2023-07-13T10:43:28;100857.84;;;23.95;67.06
11985;BME280;6052;53.246;10.368;2023-07-13T10:46:01;100858.97;;;24.11;66.50
11985;BME280;6052;53.246;10.368;2023-07-13T10:48:33;100872.22;;;24.09;64.48
11985;BME280;6052;53.246;10.368;2023-07-13T10:51:05;100862.22;;;24.13;64.22
11985;BME280;6052;53.246;10.368;2023-07-13T10:53:37;100868.97;;;24.33;65.62
11985;BME280;6052;53.246;10.368;2023-07-13T10:56:20;100861.09;;;24.14;63.77
11985;BME280;6052;53.246;10.368;2023-07-13T10:59:02;100856.53;;;24.35;63.66
11985;BME280;6052;53.246;10.368;2023-07-13T11:01:51;100863.00;;;24.39;62.64
11985;BME280;6052;53.246;10.368;2023-07-13T11:04:23;100863.47;;;24.41;61.95
11985;BME280;6052;53.246;10.368;2023-07-13T11:06:57;100851.22;;;24.39;62.41
11985;BME280;6052;53.246;10.368;2023-07-13T11:09:35;100854.13;;;24.59;62.86
11985;BME280;6052;53.246;10.368;2023-07-13T11:12:08;100875.91;;;24.56;61.17
11985;BME280;6052;53.246;10.368;2023-07-13T11:15:06;100855.41;;;24.45;61.78
11985;BME280;6052;53.246;10.368;2023-07-13T11:17:50;100857.53;;;24.22;62.40
11985;BME280;6052;53.246;10.368;2023-07-13T11:20:37;100863.50;;;24.50;62.90
11985;BME280;6052;53.246;10.368;2023-07-13T11:23:19;100861.56;;;24.67;62.51
11985;BME280;6052;53.246;10.368;2023-07-13T11:25:49;100858.81;;;24.67;61.84
11985;BME280;6052;53.246;10.368;2023-07-13T11:28:23;100862.34;;;24.68;61.93
11985;BME280;6052;53.246;10.368;2023-07-13T11:31:12;100865.09;;;24.76;60.94
11985;BME280;6052;53.246;10.368;2023-07-13T11:33:54;100852.78;;;24.82;60.21
11985;BME280;6052;53.246;10.368;2023-07-13T11:36:30;100856.69;;;24.64;58.48
11985;BME280;6052;53.246;10.368;2023-07-13T11:39:04;100856.97;;;24.88;60.18
11985;BME280;6052;53.246;10.368;2023-07-13T11:41:44;100866.19;;;24.75;60.73
11985;BME280;6052;53.246;10.368;2023-07-13T11:44:17;100859.78;;;24.71;60.49
11985;BME280;6052;53.246;10.368;2023-07-13T11:46:49;100846.66;;;24.85;60.71
11985;BME280;6052;53.246;10.368;2023-07-13T11:49:25;100861.81;;;24.91;59.97
11985;BME280;6052;53.246;10.368;2023-07-13T11:51:59;100853.41;;;24.96;59.82
11985;BME280;6052;53.246;10.368;2023-07-13T11:54:31;100859.72;;;24.88;59.32
11985;BME280;6052;53.246;10.368;2023-07-13T11:57:03;100858.53;;;25.06;59.07
11985;BME280;6052;53.246;10.368;2023-07-13T11:59:38;100853.50;;;25.08;59.29
11985;BME280;6052;53.246;10.368;2023-07-13T12:02:16;100862.75;;;25.04;59.31
11985;BME280;6052;53.246;10.368;2023-07-13T12:04:50;100849.31;;;25.02;58.44
11985;BME280;6052;53.246;10.368;2023-07-13T12:07:19;100862.69;;;25.29;58.25
11985;BME280;6052;53.246;10.368;2023-07-13T12:09:49;100850.41;;;25.27;57.69
11985;BME280;6052;53.246;10.368;2023-07-13T12:12:21;100854.91;;;25.14;57.73
11985;BME280;6052;53.246;10.368;2023-07-13T12:14:51;100860.59;;;25.18;57.18
11985;BME280;6052;53.246;10.368;2023-07-13T12:17:23;100863.22;;;25.06;57.54
11985;BME280;6052;53.246;10.368;2023-07-13T12:19:56;100871.63;;;25.01;58.01
11985;BME280;6052;53.246;10.368;2023-07-13T12:22:25;100875.69;;;24.95;59.44
11985;BME280;6052;53.246;10.368;2023-07-13T12:24:55;100874.44;;;24.84;59.88
11985;BME280;6052;53.246;10.368;2023-07-13T12:27:27;100877.19;;;24.75;60.85
11985;BME280;6052;53.246;10.368;2023-07-13T12:29:59;100876.41;;;24.49;61.75
11985;BME280;6052;53.246;10.368;2023-07-13T12:32:29;100878.66;;;24.73;63.44
11985;BME280;6052;53.246;10.368;2023-07-13T12:35:14;100899.97;;;24.50;64.51
11985;BME280;6052;53.246;10.368;2023-07-13T12:37:48;100906.59;;;24.49;64.85
11985;BME280;6052;53.246;10.368;2023-07-13T12:40:20;100895.97;;;24.65;64.58
11985;BME280;6052;53.246;10.368;2023-07-13T12:42:52;100895.75;;;24.53;64.54
11985;BME280;6052;53.246;10.368;2023-07-13T12:45:24;100900.28;;;24.40;65.12
11985;BME280;6052;53.246;10.368;2023-07-13T12:47:56;100899.34;;;24.53;66.17
11985;BME280;6052;53.246;10.368;2023-07-13T12:50:34;100907.41;;;24.58;65.33
11985;BME280;6052;53.246;10.368;2023-07-13T12:53:14;100921.59;;;24.26;64.88
11985;BME280;6052;53.246;10.368;2023-07-13T12:55:47;100923.41;;;24.31;64.86
11985;BME280;6052;53.246;10.368;2023-07-13T12:58:20;100961.94;;;24.09;68.32
11985;BME280;6052;53.246;10.368;2023-07-13T13:00:54;100980.38;;;23.39;69.05
11985;BME280;6052;53.246;10.368;2023-07-13T13:03:31;101025.31;;;23.16;71.45
11985;BME280;6052;53.246;10.368;2023-07-13T13:06:21;101002.84;;;22.83;71.63
11985;BME280;6052;53.246;10.368;2023-07-13T13:08:53;101021.53;;;22.46;74.59
11985;BME280;6052;53.246;10.368;2023-07-13T13:11:24;101024.81;;;22.92;74.13
11985;BME280;6052;53.246;10.368;2023-07-13T13:13:54;101031.88;;;22.49;76.27
11985;BME280;6052;53.246;10.368;2023-07-13T13:16:29;101032.66;;;22.49;77.16
11985;BME280;6052;53.246;10.368;2023-07-13T13:19:10;101039.03;;;22.58;76.59
11985;BME280;6052;53.246;10.368;2023-07-13T13:21:45;101036.53;;;22.48;77.91